Time;durP1;ratioP1;P1;durP2;ratioP2;P2;SDS_P1;SDS_P2;PMS_P1;PMS_P2;Temp;Humidity;BMP_temperature;BMP_pressure;BME280_temperature;BME280_humidity;BME280_pressure;Samples;Min_cycle;Max_cycle;Signal;HPM_P1;HPM_P2
2023/03/25 00:01:16;;;;;;;22.50;12.30;;;;;;;9.28;78.56;99174.23;79730;1298;3011828;-68
2023/03/25 00:03:52;;;;;;;21.10;10.70;;;;;;;8.99;80.06;99168.56;78480;1296;3053281;-68
2023/03/25 00:06:20;;;;;;;23.40;12.10;;;;;;;8.90;80.28;99166.34;78290;1298;3069090;-68
2023/03/25 00:08:51;;;;;;;21.90;10.90;;;;;;;8.62;81.54;99167.42;79530;1300;3011630;-69
2023/03/25 00:11:21;;;;;;;22.10;11.20;;;;;;;8.58;81.86;99163.81;78320;1296;3057505;-68
2023/03/25 00:13:54;;;;;;;11.80;6.60;;;;;;;8.38;82.83;99167.70;79588;1300;3011725;-68
2023/03/25 00:16:27;;;;;;;15.30;8.40;;;;;;;8.80;81.65;99165.17;78358;1298;3053671;-69
2023/03/25 00:18:54;;;;;;;22.20;10.60;;;;;;;9.01;80.08;99162.70;79548;1297;3018938;-68
2023/03/25 00:21:22;;;;;;;26.30;11.50;;;;;;;8.86;80.30;99163.25;79516;1300;3012836;-67
2023/03/25 00:23:52;;;;;;;26.00;11.30;;;;;;;8.81;80.65;99156.86;78283;1300;3067682;-66
2023/03/25 00:26:21;;;;;;;23.20;11.60;;;;;;;8.70;80.96;99160.69;79430;1295;3011929;-67
2023/03/25 00:28:51;;;;;;;19.90;10.50;;;;;;;8.49;81.62;99160.61;78871;1297;3011657;-67
2023/03/25 10:04:39;;;;;;;20.30;10.50;;;;;;;13.32;63.80;99079.30;80133;1299;3013272;-60
2023/03/25 10:07:56;;;;;;;22.30;10.90;;;;;;;13.02;64.48;99084.20;77718;1302;3054008;-59
2023/03/25 10:10:36;;;;;;;18.20;9.50;;;;;;;12.98;64.72;99071.87;77710;1304;3050069;-60
2023/03/25 10:13:19;;;;;;;14.70;8.70;;;;;;;13.04;64.28;99069.08;77748;1303;3053241;-59
2023/03/25 10:16:06;;;;;;;16.70;9.40;;;;;;;13.13;64.62;99065.93;77900;1304;3053661;-60
2023/03/25 10:18:58;;;;;;;13.30;8.40;;;;;;;13.18;64.34;99064.31;77593;1298;3069970;-60
2023/03/25 10:21:45;;;;;;;13.40;8.20;;;;;;;13.36;64.14;99063.52;77975;1301;3057533;-59
2023/03/25 10:24:35;;;;;;;12.80;7.80;;;;;;;13.22;64.16;99063.66;77985;1300;3049731;-59
2023/03/25 10:27:22;;;;;;;19.60;8.60;;;;;;;13.27;64.14;99056.77;78066;1299;3053108;-59
2023/03/25 10:29:55;;;;;;;12.40;7.70;;;;;;;13.46;63.79;99053.01;78032;1301;3051036;-58
2023/03/25 10:32:27;;;;;;;12.90;8.40;;;;;;;13.31;64.04;99048.55;79248;1300;3013061;-65
2023/03/25 10:34:56;;;;;;;12.00;8.20;;;;;;;13.14;65.02;99045.47;78148;1301;3052514;-65
2023/03/25 10:37:34;;;;;;;10.70;7.40;;;;;;;13.19;64.56;99047.76;79413;1298;3013695;-66
2023/03/25 10:40:48;;;;;;;14.40;7.30;;;;;;;13.28;64.57;99043.85;78157;1301;3057728;-66
2023/03/25 10:43:39;;;;;;;12.30;8.40;;;;;;;13.30;64.20;99043.69;77987;1301;3051140;-66
2023/03/25 10:46:29;;;;;;;11.50;7.80;;;;;;;13.21;64.77;99041.10;78289;1301;3056385;-64
2023/03/25 10:48:58;;;;;;;12.00;7.40;;;;;;;13.27;64.38;99035.73;78097;1301;3050507;-65
2023/03/25 10:51:30;;;;;;;10.90;7.20;;;;;;;13.37;64.00;99025.61;79557;1302;3013652;-65
2023/03/25 10:54:05;;;;;;;11.60;7.60;;;;;;;13.31;64.40;99025.91;78166;1298;3069503;-64
2023/03/25 10:56:38;;;;;;;10.80;7.40;;;;;;;13.40;64.04;99015.18;79225;1303;3013043;-64
2023/03/25 10:59:23;;;;;;;10.20;7.70;;;;;;;13.56;63.42;99013.53;77958;1301;3050242;-65
2023/03/25 11:01:51;;;;;;;15.00;9.00;;;;;;;13.65;63.56;99007.00;77901;1304;3053834;-65
2023/03/25 11:04:18;;;;;;;13.60;8.10;;;;;;;13.63;63.60;99004.56;79482;1301;3013466;-65
2023/03/25 11:06:51;;;;;;;11.60;7.80;;;;;;;13.82;62.94;98996.87;79503;1298;3011711;-67
2023/03/25 11:09:26;;;;;;;14.70;7.40;;;;;;;13.88;62.50;98995.17;78140;1299;3068201;-65
2023/03/25 11:11:53;;;;;;;15.70;8.20;;;;;;;13.53;63.68;98993.88;79182;1298;3012284;-64
2023/03/25 11:14:23;;;;;;;13.90;8.40;;;;;;;13.86;63.30;98981.95;77918;1301;3056726;-66
2023/03/25 11:17:02;;;;;;;18.30;9.60;;;;;;;14.03;62.27;98980.85;78166;1301;3049888;-65
2023/03/25 11:19:30;;;;;;;;;;;;;;;13.85;62.92;98980.39;79154;1298;3013237;-65
2023/03/25 11:22:01;;;;;;;12.00;7.40;;;;;;;13.64;63.61;98981.04;78069;1301;3050941;-64
2023/03/25 11:24:31;;;;;;;12.20;7.90;;;;;;;13.60;63.66;98976.61;79243;1298;3011683;-64
2023/03/25 11:27:00;;;;;;;16.60;8.10;;;;;;;13.63;63.65;98972.49;77958;1303;3053744;-62
2023/03/25 11:29:31;;;;;;;16.50;7.60;;;;;;;13.97;62.74;98966.80;79330;1301;3011629;-66
2023/03/25 11:32:07;;;;;;;15.60;7.80;;;;;;;14.25;61.66;98960.91;78151;1304;3050103;-66
2023/03/25 11:34:40;;;;;;;11.60;7.40;;;;;;;14.35;61.35;98956.95;78315;1301;3055647;-66
2023/03/25 11:37:18;;;;;;;12.30;7.90;;;;;;;14.60;60.91;98954.77;79346;1297;3013948;-65
2023/03/25 11:39:54;;;;;;;14.00;7.30;;;;;;;14.76;59.94;98946.80;78242;1298;3053862;-68
2023/03/25 11:42:38;;;;;;;10.20;7.30;;;;;;;14.93;59.41;98945.70;78153;1300;3051281;-68
2023/03/25 11:45:22;;;;;;;10.90;7.20;;;;;;;14.99;58.07;98946.20;78241;1301;3053954;-67
2023/03/25 11:48:10;;;;;;;10.60;7.20;;;;;;;15.13;58.07;98933.86;78221;1298;3053544;-67
2023/03/25 11:50:43;;;;;;;;;;;;;;;15.36;57.42;98928.86;78225;1300;3070101;-66
2023/03/25 11:53:11;;;;;;;19.20;8.30;;;;;;;15.11;56.53;98926.29;79386;1296;3011416;-65
2023/03/25 11:55:48;;;;;;;11.50;7.60;;;;;;;15.00;56.42;98921.05;78127;1296;3055313;-66
2023/03/25 11:58:27;;;;;;;14.20;7.30;;;;;;;14.94;56.75;98920.13;78180;1298;3049326;-67
2023/03/25 12:01:03;;;;;;;19.10;7.50;;;;;;;15.17;56.86;98919.75;78152;1298;3054507;-67
2023/03/25 12:03:33;;;;;;;11.40;7.50;;;;;;;15.32;56.40;98917.55;78181;1300;3050197;-66
2023/03/25 12:06:15;;;;;;;11.60;8.00;;;;;;;15.42;56.00;98916.67;79370;1298;3013650;-67
2023/03/25 12:08:52;;;;;;;15.90;7.70;;;;;;;15.24;56.14;98921.08;78214;1300;3052727;-67
2023/03/25 12:11:55;;;;;;;13.90;7.30;;;;;;;15.57;55.29;98912.35;78236;1300;3068545;-68
2023/03/25 12:14:47;;;;;;;11.00;7.20;;;;;;;15.58;55.07;98904.31;78080;1298;3052002;-67
2023/03/25 12:17:41;;;;;;;12.30;7.20;;;;;;;15.70;55.17;98909.91;78177;1301;3058063;-66
2023/03/25 12:20:23;;;;;;;11.70;7.60;;;;;;;15.65;55.41;98905.23;78211;1299;3050755;-66
2023/03/25 12:23:02;;;;;;;15.20;8.00;;;;;;;15.80;54.76;98905.47;78193;1298;3053637;-68
2023/03/25 12:25:54;;;;;;;11.70;7.60;;;;;;;15.62;54.96;98902.14;78179;1299;3049375;-71
2023/03/25 12:28:47;;;;;;;13.60;7.20;;;;;;;15.60;55.55;98894.56;78285;1301;3052597;-69
2023/03/25 12:32:03;;;;;;;10.80;7.20;;;;;;;15.43;56.38;98895.21;78101;1301;3051918;-73
2023/03/25 12:34:39;;;;;;;14.10;7.60;;;;;;;15.11;56.73;98894.11;78218;1299;3070287;-70
2023/03/25 12:37:28;;;;;;;15.70;7.20;;;;;;;15.10;56.70;98891.80;78207;1301;3052071;-66
2023/03/25 12:40:34;;;;;;;13.70;7.10;;;;;;;15.03;57.34;98889.03;77989;1301;3057167;-65
2023/03/25 12:43:16;;;;;;;11.60;7.50;;;;;;;14.86;57.95;98889.45;78412;1301;3051276;-65
2023/03/25 12:45:51;;;;;;;14.10;7.00;;;;;;;14.68;58.80;98887.02;78017;1298;3053675;-66
2023/03/25 12:48:26;;;;;;;11.80;7.70;;;;;;;14.82;58.54;98886.30;77978;1300;3049305;-64
2023/03/25 12:51:08;;;;;;;12.90;7.10;;;;;;;14.71;58.95;98886.35;79332;1299;3011451;-65
2023/03/25 12:54:22;;;;;;;16.10;7.60;;;;;;;14.56;59.29;98888.15;78213;1300;3052838;-68
2023/03/25 12:57:14;;;;;;;11.50;8.00;;;;;;;14.42;59.80;98884.61;77640;1309;3070590;-67
2023/03/25 13:00:07;;;;;;;10.60;7.30;;;;;;;14.33;60.27;98883.06;78009;1301;3050860;-65
2023/03/25 13:03:02;;;;;;;14.40;7.70;;;;;;;14.47;60.29;98879.24;78004;1300;3057164;-65
2023/03/25 13:05:40;;;;;;;15.10;8.50;;;;;;;14.49;60.72;98876.49;78164;1298;3051437;-68
2023/03/25 13:08:31;;;;;;;11.60;7.60;;;;;;;14.80;60.04;98868.02;78049;1301;3054865;-65
2023/03/25 13:11:09;;;;;;;11.60;7.10;;;;;;;15.00;59.15;98861.07;78061;1299;3050272;-65
2023/03/25 13:13:37;;;;;;;12.60;8.90;;;;;;;15.10;59.17;98856.52;78134;1297;3054528;-65
2023/03/25 13:16:08;;;;;;;13.30;8.80;;;;;;;15.15;59.29;98855.89;79331;1301;3013403;-65
2023/03/25 13:18:36;;;;;;;13.80;8.70;;;;;;;15.24;59.08;98855.26;78178;1299;3050939;-66
2023/03/25 13:21:09;;;;;;;19.20;8.30;;;;;;;15.34;58.18;98855.94;79361;1297;3013809;-65
2023/03/25 13:23:37;;;;;;;15.00;8.20;;;;;;;15.19;58.50;98858.21;78150;1300;3053602;-66
2023/03/25 13:26:10;;;;;;;14.10;8.60;;;;;;;15.10;58.94;98855.29;79337;1301;3013547;-65
2023/03/25 13:28:45;;;;;;;16.60;9.00;;;;;;;15.17;58.80;98852.02;78011;1298;3052014;-64
2023/03/25 13:31:18;;;;;;;14.80;8.40;;;;;;;15.21;59.05;98851.54;78822;1298;3013387;-65
2023/03/25 13:34:29;;;;;;;18.00;10.00;;;;;;;15.28;59.08;98844.20;79312;1295;3011509;-66
2023/03/25 13:37:10;;;;;;;16.00;8.90;;;;;;;15.42;58.66;98850.61;78168;1298;3051554;-65
2023/03/25 13:40:10;;;;;;;17.90;9.40;;;;;;;15.19;59.36;98851.83;78026;1299;3056956;-66
2023/03/25 13:42:52;;;;;;;18.40;9.40;;;;;;;15.08;59.94;98847.50;78043;1298;3048954;-67
2023/03/25 13:45:21;;;;;;;19.10;10.10;;;;;;;15.40;59.16;98845.92;78048;1300;3055034;-67
2023/03/25 13:48:10;;;;;;;17.80;10.30;;;;;;;15.41;59.05;98842.45;79507;1301;3013917;-65
2023/03/25 13:50:39;;;;;;;13.60;8.30;;;;;;;15.83;57.91;98835.64;78139;1300;3054446;-68
2023/03/25 13:53:14;;;;;;;16.60;9.10;;;;;;;15.84;57.35;98831.84;79535;1300;3016101;-67
2023/03/25 13:56:08;;;;;;;17.30;9.10;;;;;;;15.30;58.58;98830.95;78201;1300;3058172;-70
2023/03/25 13:58:51;;;;;;;17.60;9.40;;;;;;;14.90;60.09;98828.49;78240;1299;3049287;-68
2023/03/25 14:01:44;;;;;;;17.20;9.60;;;;;;;14.83;60.60;98827.01;78117;1296;3053580;-68
2023/03/25 14:04:30;;;;;;;16.10;8.90;;;;;;;14.65;61.10;98825.67;78254;1298;3050830;-69
2023/03/25 14:07:10;;;;;;;23.60;9.70;;;;;;;14.64;61.21;98817.14;78105;1301;3053198;-71
2023/03/25 14:09:57;;;;;;;16.20;9.10;;;;;;;14.63;61.35;98819.02;78251;1301;3053124;-69
2023/03/25 14:12:27;;;;;;;14.10;8.40;;;;;;;15.03;60.37;98808.64;78188;1296;3070132;-67
2023/03/25 14:15:03;;;;;;;16.00;9.30;;;;;;;15.05;60.06;98809.53;79462;1300;3011482;-70
2023/03/25 14:17:34;;;;;;;16.70;9.80;;;;;;;14.92;60.58;98810.66;78229;1301;3056343;-69
2023/03/25 14:20:00;;;;;;;18.90;10.40;;;;;;;14.84;60.87;98800.10;79324;1299;3012943;-68
2023/03/25 14:22:32;;;;;;;18.00;9.90;;;;;;;15.02;60.47;98801.48;78086;1299;3052891;-64
2023/03/25 14:24:59;;;;;;;13.60;8.60;;;;;;;15.28;59.81;98802.66;79315;1301;3012928;-66
2023/03/25 14:27:30;;;;;;;17.40;9.30;;;;;;;15.49;59.02;98800.09;79338;1297;3013561;-66
2023/03/25 14:30:03;;;;;;;15.10;10.00;;;;;;;15.48;58.98;98798.09;78150;1299;3068339;-67
2023/03/25 14:32:38;;;;;;;17.70;9.30;;;;;;;15.53;58.89;98798.12;79399;1298;3011509;-65
2023/03/25 14:35:37;;;;;;;15.10;9.30;;;;;;;15.64;58.82;98793.77;78139;1299;3058258;-67
2023/03/25 14:38:08;;;;;;;16.50;9.50;;;;;;;15.74;58.51;98792.52;78022;1300;3049851;-66
2023/03/25 14:40:38;;;;;;;19.30;9.30;;;;;;;15.73;58.38;98791.86;79547;1295;3012955;-66
2023/03/25 14:43:45;;;;;;;18.60;11.30;;;;;;;15.96;57.69;98788.91;78405;1295;3049645;-65
2023/03/25 14:46:18;;;;;;;18.30;10.10;;;;;;;15.79;58.33;98789.64;77801;1307;3052785;-66
2023/03/25 14:48:49;;;;;;;17.20;9.70;;;;;;;15.64;58.72;98782.25;78868;1301;3012824;-67
2023/03/25 14:51:39;;;;;;;15.60;8.90;;;;;;;15.31;59.73;98776.90;78038;1295;3068913;-66
2023/03/25 14:54:34;;;;;;;20.00;9.90;;;;;;;15.23;60.16;98773.00;78419;1298;3051828;-66
2023/03/25 14:57:17;;;;;;;19.20;10.10;;;;;;;15.06;60.76;98770.30;78267;1295;3057528;-69
2023/03/25 14:59:47;;;;;;;17.40;8.80;;;;;;;14.85;61.57;98771.46;78419;1298;3049564;-66
2023/03/25 15:02:19;;;;;;;17.30;10.50;;;;;;;14.72;62.33;98765.56;79695;1295;3011637;-65
2023/03/25 15:05:12;;;;;;;16.10;9.90;;;;;;;14.74;62.32;98768.02;78421;1295;3050434;-67
2023/03/25 15:07:43;;;;;;;;;;;;;;;14.78;62.29;98762.89;78372;1313;3052351;-68
2023/03/25 15:10:24;;;;;;;16.10;8.60;;;;;;;14.79;61.94;98761.02;79668;1298;3013727;-65
2023/03/25 15:13:00;;;;;;;15.90;8.70;;;;;;;14.63;62.50;98760.17;78255;1301;3070806;-65
2023/03/25 15:15:46;;;;;;;17.40;9.80;;;;;;;14.63;62.79;98759.66;78934;1296;3011849;-69
2023/03/25 15:18:34;;;;;;;16.30;10.40;;;;;;;14.42;63.16;98762.70;78239;1298;3053146;-67
2023/03/25 15:21:12;;;;;;;19.30;10.20;;;;;;;14.41;63.33;98763.64;78358;1294;3058645;-68
2023/03/25 15:23:58;;;;;;;14.70;9.30;;;;;;;14.49;63.24;98760.16;79619;1298;3011628;-67
2023/03/25 15:26:31;;;;;;;22.10;10.40;;;;;;;14.36;63.30;98762.66;78347;1295;3053634;-65
2023/03/25 15:29:06;;;;;;;;;;;;;;;14.30;63.89;98763.95;79544;1295;3012323;-68
2023/03/25 15:31:56;;;;;;;22.60;9.10;;;;;;;14.05;64.72;98760.60;78411;1298;3052086;-68
2023/03/25 15:34:46;;;;;;;18.50;9.50;;;;;;;13.84;65.48;98754.35;78467;1298;3053265;-66
2023/03/25 15:37:36;;;;;;;19.20;11.00;;;;;;;13.76;65.54;98751.27;78345;1298;3070902;-68
2023/03/25 15:40:24;;;;;;;20.20;9.60;;;;;;;13.53;66.45;98751.47;78347;1296;3051513;-67
2023/03/25 15:43:40;;;;;;;19.40;10.70;;;;;;;13.32;67.33;98753.66;78353;1298;3058390;-66
2023/03/25 15:46:38;;;;;;;19.70;9.80;;;;;;;13.25;67.27;98757.30;78309;1295;3049327;-68
2023/03/25 15:49:28;;;;;;;19.50;9.80;;;;;;;13.08;68.23;98750.58;78365;1298;3053799;-67
2023/03/25 15:52:15;;;;;;;16.00;9.60;;;;;;;12.99;68.43;98750.62;78333;1298;3049080;-64
2023/03/25 15:54:50;;;;;;;24.10;10.20;;;;;;;12.86;68.82;98751.31;78489;1298;3052919;-69
2023/03/25 15:57:27;;;;;;;19.00;10.60;;;;;;;12.74;69.17;98752.13;78442;1294;3053225;-69
2023/03/25 16:00:12;;;;;;;17.20;10.60;;;;;;;12.67;69.72;98751.23;79098;1298;3013212;-67
2023/03/25 16:03:02;;;;;;;16.80;9.90;;;;;;;12.63;69.98;98752.33;78399;1298;3069891;-69
2023/03/25 16:05:32;;;;;;;20.30;10.90;;;;;;;12.39;70.63;98748.90;78260;1299;3052220;-68
2023/03/25 16:08:05;;;;;;;19.10;11.20;;;;;;;12.28;70.81;98754.34;79571;1294;3011604;-67
2023/03/25 16:10:35;;;;;;;24.70;12.00;;;;;;;12.28;70.81;98755.41;78317;1296;3048290;-68
2023/03/25 16:13:05;;;;;;;20.50;10.90;;;;;;;12.10;71.28;98755.05;79710;1295;3012955;-70
2023/03/25 16:15:39;;;;;;;18.80;10.60;;;;;;;12.05;71.44;98750.19;78367;1298;3050775;-68
2023/03/25 16:18:07;;;;;;;20.40;10.40;;;;;;;12.09;71.21;98744.58;79555;1298;3011993;-66
2023/03/25 16:20:34;;;;;;;22.30;11.50;;;;;;;12.05;71.07;98743.55;79488;1301;3011820;-65
2023/03/25 16:23:03;;;;;;;17.30;10.40;;;;;;;11.95;71.29;98743.40;78237;1295;3052615;-68
2023/03/25 16:25:36;;;;;;;23.40;10.90;;;;;;;11.95;71.36;98743.58;79677;1296;3013478;-67
2023/03/25 16:28:20;;;;;;;18.30;10.70;;;;;;;11.91;71.28;98750.15;78352;1296;3053948;-67
2023/03/25 16:30:51;;;;;;;23.90;11.60;;;;;;;11.73;71.94;98751.55;78382;1298;3048971;-66
2023/03/25 16:33:26;;;;;;;24.60;12.10;;;;;;;11.73;72.09;98750.17;79716;1298;3012750;-68
2023/03/25 16:35:58;;;;;;;24.80;13.20;;;;;;;11.70;72.17;98750.39;78403;1294;3053257;-68
2023/03/25 16:38:25;;;;;;;30.00;12.00;;;;;;;11.68;72.17;98745.97;79623;1294;3011592;-67
2023/03/25 16:41:06;;;;;;;21.90;11.10;;;;;;;11.68;72.15;98752.80;78471;1295;3027208;-71
2023/03/25 16:43:34;;;;;;;27.20;13.60;;;;;;;11.63;72.26;98752.11;78366;1295;3057344;-66
2023/03/25 16:46:02;;;;;;;25.30;12.80;;;;;;;11.61;72.26;98757.20;79438;1295;3013730;-68
2023/03/25 16:48:33;;;;;;;25.50;13.00;;;;;;;11.63;72.57;98758.08;79545;1296;3012134;-67
2023/03/25 16:51:16;;;;;;;24.00;12.70;;;;;;;11.62;72.33;98759.92;78225;1301;3053489;-68
2023/03/25 16:53:44;;;;;;;;;;;;;;;11.51;72.78;98760.91;78375;1298;3053761;-66
2023/03/25 16:56:14;;;;;;;23.60;12.00;;;;;;;11.44;72.85;98767.46;79441;1300;3013504;-67
2023/03/25 16:58:52;;;;;;;21.70;12.20;;;;;;;11.32;73.17;98769.70;78959;1294;3013468;-68
2023/03/25 17:01:21;;;;;;;28.40;12.40;;;;;;;11.33;73.32;98773.67;78319;1295;3057947;-67
2023/03/25 17:03:48;;;;;;;17.10;7.80;;;;;;;11.25;73.37;98772.55;79379;1294;3013615;-67
2023/03/25 17:06:21;;;;;;;24.50;10.40;;;;;;;11.76;72.17;98765.02;79577;1295;3011602;-68
2023/03/25 17:08:50;;;;;;;18.80;10.60;;;;;;;12.07;70.65;98762.86;78387;1296;3050983;-70
2023/03/25 17:11:17;;;;;;;18.20;9.70;;;;;;;11.89;70.87;98765.92;79500;1301;3012874;-68
2023/03/25 17:13:50;;;;;;;19.80;11.20;;;;;;;11.79;71.15;98769.85;78183;1296;3051923;-70
2023/03/25 17:16:18;;;;;;;25.20;11.80;;;;;;;11.73;71.19;98781.42;79746;1294;3011756;-67
2023/03/25 17:18:50;;;;;;;21.40;12.10;;;;;;;11.52;72.06;98782.94;79116;1298;3011610;-68
2023/03/25 17:21:26;;;;;;;27.10;12.80;;;;;;;11.20;73.13;98782.52;79569;1298;3011804;-65
2023/03/25 17:23:56;;;;;;;24.20;13.40;;;;;;;11.10;73.34;98780.48;78460;1298;3050835;-68
2023/03/25 17:26:23;;;;;;;21.10;12.30;;;;;;;11.01;73.70;98780.61;79441;1301;3013414;-67
2023/03/25 17:28:53;;;;;;;29.10;13.20;;;;;;;10.83;74.45;98780.48;79058;1294;3011928;-67
2023/03/25 17:31:29;;;;;;;29.20;12.70;;;;;;;10.66;75.38;98781.73;79599;1295;3018340;-68
2023/03/25 17:34:09;;;;;;;26.70;12.90;;;;;;;10.51;75.85;98784.00;78359;1295;3057302;-70
2023/03/25 17:36:40;;;;;;;21.30;12.00;;;;;;;10.37;76.48;98785.99;78293;1295;3049008;-69
2023/03/25 17:39:23;;;;;;;16.20;8.60;;;;;;;10.28;76.96;98783.51;79574;1295;3013200;-67
2023/03/25 17:41:59;;;;;;;19.30;9.40;;;;;;;10.94;75.01;98784.63;78428;1298;3051743;-69
2023/03/25 17:44:32;;;;;;;20.90;10.90;;;;;;;11.13;73.35;98782.83;79005;1298;3011587;-69
2023/03/25 17:46:59;;;;;;;21.90;11.50;;;;;;;11.10;73.18;98782.17;79633;1295;3011797;-69
2023/03/25 17:49:27;;;;;;;22.00;11.10;;;;;;;10.95;73.63;98783.44;78399;1298;3052914;-69
2023/03/25 17:51:54;;;;;;;26.00;13.10;;;;;;;10.71;74.22;98780.11;79598;1294;3012997;-68
2023/03/25 17:54:21;;;;;;;24.40;13.10;;;;;;;10.27;75.72;98787.27;79617;1298;3011642;-71
2023/03/25 17:56:50;;;;;;;24.40;13.30;;;;;;;10.01;77.03;98785.35;78420;1295;3028111;-69
2023/03/25 17:59:24;;;;;;;23.50;13.30;;;;;;;9.95;77.37;98780.67;79491;1295;3011392;-68
2023/03/25 18:01:52;;;;;;;22.70;13.20;;;;;;;9.72;78.58;98787.70;78289;1298;3049678;-68
2023/03/25 18:04:20;;;;;;;24.00;14.20;;;;;;;9.47;79.50;98795.30;79704;1298;3013204;-65
2023/03/25 18:06:51;;;;;;;15.70;9.00;;;;;;;9.32;80.56;98787.05;79021;1295;3011802;-67
2023/03/25 18:09:23;;;;;;;25.20;12.20;;;;;;;9.87;78.96;98788.92;79512;1298;3012906;-64
2023/03/25 18:11:53;;;;;;;25.60;13.10;;;;;;;10.13;77.20;98785.23;78400;1296;3057097;-67
2023/03/25 18:14:24;;;;;;;28.30;14.10;;;;;;;10.17;76.73;98784.42;79438;1299;3011790;-69
2023/03/25 18:16:52;;;;;;;30.30;14.80;;;;;;;9.91;77.58;98791.28;78399;1296;3052878;-70
2023/03/25 18:19:21;;;;;;;31.40;16.30;;;;;;;9.60;78.74;98789.70;79497;1298;3013035;-67
2023/03/25 18:21:47;;;;;;;31.40;16.40;;;;;;;9.54;79.27;98788.55;79644;1298;3012035;-67
2023/03/25 18:24:15;;;;;;;29.50;16.30;;;;;;;9.48;79.46;98785.61;78397;1298;3068927;-69
2023/03/25 18:26:42;;;;;;;32.70;16.80;;;;;;;9.21;80.61;98788.31;79607;1295;3012604;-69
2023/03/25 18:29:23;;;;;;;31.90;17.30;;;;;;;9.02;81.45;98784.61;78357;1298;3049726;-67
2023/03/25 18:31:52;;;;;;;27.00;11.50;;;;;;;8.91;82.62;98786.38;78374;1295;3052717;-68
2023/03/25 18:34:19;;;;;;;27.60;13.50;;;;;;;9.41;80.89;98782.05;79614;1298;3012729;-66
2023/03/25 18:36:48;;;;;;;30.20;13.70;;;;;;;9.83;78.67;98775.77;79648;1298;3013063;-68
2023/03/25 18:39:23;;;;;;;41.70;16.80;;;;;;;9.87;78.03;98773.55;78423;1295;3069510;-68
2023/03/25 18:41:51;;;;;;;33.70;17.40;;;;;;;9.70;78.34;98775.04;78421;1298;3052753;-67
2023/03/25 18:44:18;;;;;;;32.10;17.60;;;;;;;9.44;79.41;98774.67;79595;1295;3013536;-68
2023/03/25 18:46:53;;;;;;;35.60;17.50;;;;;;;9.24;80.49;98773.42;78644;1295;3054011;-64
2023/03/25 18:49:19;;;;;;;37.50;18.20;;;;;;;9.08;81.18;98773.02;80488;1298;3013701;-65
2023/03/25 18:51:47;;;;;;;32.30;16.80;;;;;;;8.75;82.87;98775.02;80658;1298;3011775;-64
2023/03/25 18:54:15;;;;;;;23.80;10.90;;;;;;;8.64;83.63;98777.62;79366;1298;3069074;-70
2023/03/25 18:56:42;;;;;;;29.00;14.50;;;;;;;9.08;82.77;98772.56;79670;1295;3013552;-68
2023/03/25 18:59:10;;;;;;;33.80;16.10;;;;;;;9.41;80.94;98770.16;79456;1298;3011636;-67
2023/03/25 19:01:38;;;;;;;32.40;17.00;;;;;;;9.19;81.16;98769.02;78313;1296;3053416;-70
2023/03/25 19:04:05;;;;;;;35.90;18.00;;;;;;;9.37;80.67;98765.73;79518;1298;3011958;-70
2023/03/25 19:06:39;;;;;;;40.10;18.80;;;;;;;8.99;81.38;98769.08;78298;1298;3054158;-68
2023/03/25 19:09:14;;;;;;;40.10;19.00;;;;;;;8.62;83.47;98769.50;79552;1294;3011712;-65
2023/03/25 19:11:42;;;;;;;32.30;17.40;;;;;;;8.54;84.09;98766.77;78453;1296;3050851;-65
2023/03/25 19:14:09;;;;;;;30.60;16.90;;;;;;;8.63;83.98;98763.73;79510;1295;3013325;-67
2023/03/25 19:16:36;;;;;;;26.20;10.20;;;;;;;8.59;83.99;98765.17;79658;1294;3011757;-66
2023/03/25 19:19:04;;;;;;;32.60;14.10;;;;;;;8.99;82.88;98760.02;78329;1298;3050837;-69
2023/03/25 19:21:33;;;;;;;36.10;15.70;;;;;;;9.35;81.26;98759.22;79640;1298;3011741;-69
2023/03/25 19:24:00;;;;;;;32.50;18.10;;;;;;;9.33;80.88;98754.63;79574;1298;3012727;-66
2023/03/25 19:26:28;;;;;;;33.10;18.10;;;;;;;9.01;82.27;98753.04;78362;1295;3051413;-68
2023/03/25 19:28:56;;;;;;;41.50;20.20;;;;;;;8.82;83.14;98753.45;79532;1298;3014601;-67
2023/03/25 19:31:23;;;;;;;37.10;20.10;;;;;;;8.57;84.71;98751.19;79610;1294;3011410;-67
2023/03/25 19:34:00;;;;;;;42.40;22.90;;;;;;;8.19;86.19;98752.11;78047;1298;3051777;-68
2023/03/25 19:36:27;;;;;;;34.00;16.70;;;;;;;8.27;87.51;98752.14;79484;1298;3012980;-68
2023/03/25 19:39:04;;;;;;;34.90;18.10;;;;;;;8.68;86.01;98742.11;79432;1298;3012271;-71
2023/03/25 19:41:36;;;;;;;37.30;18.60;;;;;;;9.13;84.01;98744.60;78304;1295;3051997;-67
2023/03/25 19:44:03;;;;;;;35.90;18.30;;;;;;;8.69;85.14;98742.88;79577;1294;3012077;-69
2023/03/25 19:46:32;;;;;;;39.10;20.00;;;;;;;8.74;85.41;98741.70;78283;1294;3026778;-66
2023/03/25 19:48:59;;;;;;;35.80;19.60;;;;;;;8.46;86.89;98742.27;79552;1298;3013740;-69
2023/03/25 19:51:25;;;;;;;36.50;19.40;;;;;;;8.34;87.81;98741.95;79485;1295;3011888;-66
2023/03/25 19:54:01;;;;;;;24.70;12.60;;;;;;;8.23;88.80;98740.55;78098;1298;3054326;-65
2023/03/25 19:56:28;;;;;;;27.50;12.40;;;;;;;8.52;88.00;98743.10;79373;1301;3019014;-70
2023/03/25 19:58:54;;;;;;;24.10;12.20;;;;;;;8.83;86.18;98740.41;79563;1295;3013436;-67
2023/03/25 20:01:23;;;;;;;22.60;12.60;;;;;;;8.79;85.76;98743.80;78328;1298;3028596;-69
2023/03/25 20:03:50;;;;;;;23.50;12.50;;;;;;;8.32;87.70;98743.64;79530;1298;3012773;-66
2023/03/25 20:06:16;;;;;;;23.20;12.50;;;;;;;8.32;88.53;98741.05;79483;1298;3011601;-70
2023/03/25 20:08:44;;;;;;;23.80;14.00;;;;;;;8.24;88.81;98736.84;78395;1298;3053136;-68
2023/03/25 20:11:11;;;;;;;18.20;8.90;;;;;;;8.20;89.34;98737.79;79577;1298;3013599;-64
2023/03/25 20:13:43;;;;;;;22.20;11.00;;;;;;;8.63;87.91;98734.73;79021;1296;3011641;-69
2023/03/25 20:16:10;;;;;;;18.30;10.50;;;;;;;8.77;86.29;98742.38;79656;1298;3012694;-66
2023/03/25 20:18:37;;;;;;;23.40;12.40;;;;;;;8.62;86.77;98735.50;79603;1295;3011997;-68
2023/03/25 20:21:06;;;;;;;26.50;12.50;;;;;;;8.47;87.48;98737.15;78407;1298;3048549;-66
2023/03/25 20:23:35;;;;;;;23.90;12.20;;;;;;;8.33;88.17;98733.61;79637;1298;3011934;-66
2023/03/25 20:26:04;;;;;;;19.30;12.60;;;;;;;8.28;88.55;98735.85;79069;1298;3011829;-68
2023/03/25 20:28:31;;;;;;;24.80;12.50;;;;;;;8.21;88.51;98733.35;79670;1295;3013507;-69
2023/03/25 20:30:57;;;;;;;16.10;9.50;;;;;;;7.86;90.49;98734.09;79596;1295;3011895;-66
2023/03/25 20:33:26;;;;;;;21.60;11.50;;;;;;;8.41;89.39;98727.76;78378;1295;3048535;-67
2023/03/25 20:35:53;;;;;;;23.60;11.80;;;;;;;8.54;87.86;98730.41;79586;1298;3014805;-66
2023/03/25 20:38:20;;;;;;;22.50;12.80;;;;;;;8.57;87.24;98720.48;79458;1298;3011637;-65
2023/03/25 20:40:53;;;;;;;25.50;14.20;;;;;;;8.46;87.52;98723.60;78208;1298;3053631;-68
2023/03/25 20:43:20;;;;;;;23.10;13.80;;;;;;;8.44;88.03;98716.87;79455;1300;3011393;-67
2023/03/25 20:45:53;;;;;;;25.40;13.30;;;;;;;8.16;88.90;98711.81;78362;1295;3052630;-68
2023/03/25 20:48:20;;;;;;;18.20;9.20;;;;;;;8.15;89.52;98708.05;79645;1298;3011657;-67
2023/03/25 20:50:47;;;;;;;19.20;9.50;;;;;;;8.56;88.33;98708.65;78155;1295;3026019;-65
2023/03/25 20:53:15;;;;;;;19.00;11.60;;;;;;;8.95;86.02;98705.39;79657;1296;3018516;-65
2023/03/25 20:55:42;;;;;;;23.00;12.40;;;;;;;9.16;84.83;98700.90;79566;1296;3011879;-67
2023/03/25 20:58:14;;;;;;;28.10;12.90;;;;;;;8.77;85.22;98696.80;78420;1295;3052667;-67
2023/03/25 21:00:43;;;;;;;23.70;12.30;;;;;;;8.61;86.45;98693.34;79496;1298;3013506;-66
2023/03/25 21:03:14;;;;;;;24.90;13.10;;;;;;;8.35;87.58;98691.98;79065;1298;3013448;-68
2023/03/25 21:05:48;;;;;;;16.70;10.10;;;;;;;8.07;89.45;98687.96;78375;1298;3057110;-69
2023/03/25 21:08:15;;;;;;;15.40;9.30;;;;;;;8.58;88.55;98684.61;79637;1296;3013578;-66
2023/03/25 21:10:46;;;;;;;23.50;12.40;;;;;;;8.86;86.19;98682.80;79612;1295;3011458;-69
2023/03/25 21:13:14;;;;;;;23.00;12.20;;;;;;;8.87;85.61;98680.62;78338;1298;3052298;-66
2023/03/25 21:15:42;;;;;;;25.00;12.40;;;;;;;8.59;86.64;98679.80;79616;1298;3013677;-66
2023/03/25 21:18:09;;;;;;;21.50;11.50;;;;;;;8.51;87.42;98677.39;79646;1298;3013068;-70
2023/03/25 21:20:51;;;;;;;23.10;12.60;;;;;;;8.25;88.18;98679.18;78367;1295;3057511;-69